Rollinsford, New Hampshire
Current Conditions -  °F | °C
As of 3:51 PM on Friday 24 Oct 2014 (Local Time) from KDAW Reporting Station
Light Rain Light Rain  
Wind Chill: 52°   Ceiling: 2000
Heat Index: 52°   Visibility: 4mi
Dew Point: 46°   Wind: 9mph
Humidity: 80%   Direction: 310°NW
Pressure: 29.67"   Gusts: NA
Location:  43.24°N, 70.82°W
Report Text: KDAW 241951Z AUTO 31008KT 4SM -RA BKN020 OVC028 11/08 A2967 RMK AO2 RAB46 SLP045 P0000 T01110078
Loading
Personal Weather Stations






























Interactive Weather Map
Tropical Storm Tracking
New forecast layout! Learn more

10-Day Weather Forecast

Advertisements
Track Severe Weather on mobile